Terminal Aerodrome Forecast
Issued by NWS

Home | Current Version | Previous Version | Graphics & Text | Print | Product List | Glossary On
Versions: 1 2 3 4 5 6 7 8 9 10 11 12 13 14 15 16 17 18 19 20 21 22 23
256
FTUS42 KMHX 191739
TAFPGV
TAF
KPGV 191739Z 1918/2018 20013KT P6SM VCTS BKN040CB
     FM192100 20014KT P6SM VCSH BKN050
      TEMPO 1921/2001 4SM TS OVC025CB
     FM200200 21012KT 6SM -TSRA BKN035CB BKN150
     FM200300 21011KT 6SM -SHRA VCTS BKN035CB BKN150
     FM200900 23007KT 6SM -SHRA VCTS BKN035CB OVC060
     FM201200 22006KT 6SM SHRA VCTS BKN035CB OVC060
      AMD LTD TO CLD VIS AND WIND=

USA.gov is the U.S. government's official web portal to all federal, state and local government web resources and services.